sensor_id;sensor_type;location;lat;lon;timestamp;P1;durP1;ratioP1;P2;durP2;ratioP2
65420;SDS011;52028;50.658;14.004;2022-12-29T00:01:05;91.70;;;36.85;;
65420;SDS011;52028;50.658;14.004;2022-12-29T00:03:30;99.28;;;37.75;;
65420;SDS011;52028;50.658;14.004;2022-12-29T00:05:56;92.15;;;34.58;;
65420;SDS011;52028;50.658;14.004;2022-12-29T00:08:22;97.65;;;40.45;;
65420;SDS011;52028;50.658;14.004;2022-12-29T00:11:04;97.75;;;38.13;;
65420;SDS011;52028;50.658;14.004;2022-12-29T00:13:40;91.50;;;36.22;;
65420;SDS011;52028;50.658;14.004;2022-12-29T00:16:24;86.63;;;35.22;;
65420;SDS011;52028;50.658;14.004;2022-12-29T00:18:50;84.65;;;36.50;;
65420;SDS011;52028;50.658;14.004;2022-12-29T00:21:18;92.13;;;36.33;;
65420;SDS011;52028;50.658;14.004;2022-12-29T00:24:03;93.80;;;36.25;;
65420;SDS011;52028;50.658;14.004;2022-12-29T00:29:45;98.03;;;36.42;;
65420;SDS011;52028;50.658;14.004;2022-12-29T00:32:29;97.35;;;38.38;;
65420;SDS011;52028;50.658;14.004;2022-12-29T00:35:14;95.68;;;37.03;;
65420;SDS011;52028;50.658;14.004;2022-12-29T00:37:48;92.78;;;35.03;;
65420;SDS011;52028;50.658;14.004;2022-12-29T00:40:33;84.57;;;34.88;;
65420;SDS011;52028;50.658;14.004;2022-12-29T00:43:17;90.00;;;34.33;;
65420;SDS011;52028;50.658;14.004;2022-12-29T00:46:00;88.53;;;37.25;;
65420;SDS011;52028;50.658;14.004;2022-12-29T00:48:26;95.35;;;38.17;;
65420;SDS011;52028;50.658;14.004;2022-12-29T00:51:10;93.57;;;37.25;;
65420;SDS011;52028;50.658;14.004;2022-12-29T00:53:35;90.53;;;38.20;;
65420;SDS011;52028;50.658;14.004;2022-12-29T00:56:00;87.70;;;35.90;;
65420;SDS011;52028;50.658;14.004;2022-12-29T00:58:29;84.13;;;36.10;;
65420;SDS011;52028;50.658;14.004;2022-12-29T01:01:05;81.65;;;36.90;;
65420;SDS011;52028;50.658;14.004;2022-12-29T01:03:32;90.85;;;34.60;;
65420;SDS011;52028;50.658;14.004;2022-12-29T01:06:00;77.15;;;34.20;;
65420;SDS011;52028;50.658;14.004;2022-12-29T01:08:29;86.83;;;33.87;;
65420;SDS011;52028;50.658;14.004;2022-12-29T01:10:59;89.35;;;36.97;;
65420;SDS011;52028;50.658;14.004;2022-12-29T01:13:25;83.13;;;35.95;;
65420;SDS011;52028;50.658;14.004;2022-12-29T01:15:51;87.70;;;38.03;;
65420;SDS011;52028;50.658;14.004;2022-12-29T01:18:17;93.88;;;37.70;;
65420;SDS011;52028;50.658;14.004;2022-12-29T01:20:43;79.35;;;35.58;;
65420;SDS011;52028;50.658;14.004;2022-12-29T01:23:08;77.65;;;36.25;;
65420;SDS011;52028;50.658;14.004;2022-12-29T01:25:33;73.38;;;35.15;;
65420;SDS011;52028;50.658;14.004;2022-12-29T01:27:58;83.82;;;36.13;;
65420;SDS011;52028;50.658;14.004;2022-12-29T01:30:24;82.18;;;37.10;;
65420;SDS011;52028;50.658;14.004;2022-12-29T01:32:49;86.68;;;36.05;;
65420;SDS011;52028;50.658;14.004;2022-12-29T01:35:14;103.45;;;41.03;;
65420;SDS011;52028;50.658;14.004;2022-12-29T01:37:40;113.07;;;39.80;;
65420;SDS011;52028;50.658;14.004;2022-12-29T01:40:05;104.60;;;39.85;;
65420;SDS011;52028;50.658;14.004;2022-12-29T01:42:31;178.20;;;54.00;;
65420;SDS011;52028;50.658;14.004;2022-12-29T01:44:57;174.43;;;53.10;;
65420;SDS011;52028;50.658;14.004;2022-12-29T01:49:56;141.70;;;47.97;;
65420;SDS011;52028;50.658;14.004;2022-12-29T01:52:26;146.98;;;46.35;;
65420;SDS011;52028;50.658;14.004;2022-12-29T01:54:54;115.50;;;41.97;;
65420;SDS011;52028;50.658;14.004;2022-12-29T01:57:26;141.07;;;43.30;;
65420;SDS011;52028;50.658;14.004;2022-12-29T02:00:02;124.55;;;41.38;;
65420;SDS011;52028;50.658;14.004;2022-12-29T02:02:33;133.15;;;44.05;;
65420;SDS011;52028;50.658;14.004;2022-12-29T02:04:59;142.80;;;47.47;;
65420;SDS011;52028;50.658;14.004;2022-12-29T02:07:30;146.07;;;44.15;;
65420;SDS011;52028;50.658;14.004;2022-12-29T02:09:56;129.13;;;44.35;;
65420;SDS011;52028;50.658;14.004;2022-12-29T02:12:22;135.07;;;44.17;;
65420;SDS011;52028;50.658;14.004;2022-12-29T02:14:49;154.98;;;47.05;;
65420;SDS011;52028;50.658;14.004;2022-12-29T02:22:55;129.27;;;41.95;;
65420;SDS011;52028;50.658;14.004;2022-12-29T02:31:05;96.97;;;36.58;;
65420;SDS011;52028;50.658;14.004;2022-12-29T02:33:42;126.35;;;43.30;;
65420;SDS011;52028;50.658;14.004;2022-12-29T02:44:35;112.28;;;39.72;;
65420;SDS011;52028;50.658;14.004;2022-12-29T02:47:15;90.25;;;34.67;;
65420;SDS011;52028;50.658;14.004;2022-12-29T02:50:13;91.15;;;34.75;;
65420;SDS011;52028;50.658;14.004;2022-12-29T02:53:02;71.82;;;28.83;;
65420;SDS011;52028;50.658;14.004;2022-12-29T02:55:31;73.95;;;29.80;;
65420;SDS011;52028;50.658;14.004;2022-12-29T03:00:38;69.90;;;28.42;;
65420;SDS011;52028;50.658;14.004;2022-12-29T03:03:19;70.68;;;29.40;;
65420;SDS011;52028;50.658;14.004;2022-12-29T03:08:48;78.40;;;31.55;;
65420;SDS011;52028;50.658;14.004;2022-12-29T03:11:20;84.10;;;34.30;;
65420;SDS011;52028;50.658;14.004;2022-12-29T03:14:12;73.35;;;31.23;;
65420;SDS011;52028;50.658;14.004;2022-12-29T03:17:09;68.95;;;31.10;;
65420;SDS011;52028;50.658;14.004;2022-12-29T03:19:44;60.38;;;27.33;;
65420;SDS011;52028;50.658;14.004;2022-12-29T03:22:20;55.85;;;25.23;;
65420;SDS011;52028;50.658;14.004;2022-12-29T03:25:03;65.18;;;27.42;;
65420;SDS011;52028;50.658;14.004;2022-12-29T03:27:36;68.28;;;26.85;;
65420;SDS011;52028;50.658;14.004;2022-12-29T03:30:06;62.13;;;25.85;;
65420;SDS011;52028;50.658;14.004;2022-12-29T03:32:35;60.95;;;25.25;;
65420;SDS011;52028;50.658;14.004;2022-12-29T03:35:03;53.00;;;25.40;;
65420;SDS011;52028;50.658;14.004;2022-12-29T03:37:32;55.50;;;26.13;;
65420;SDS011;52028;50.658;14.004;2022-12-29T03:40:02;60.25;;;25.60;;
65420;SDS011;52028;50.658;14.004;2022-12-29T03:42:29;65.35;;;26.17;;
65420;SDS011;52028;50.658;14.004;2022-12-29T03:44:58;66.78;;;27.33;;
65420;SDS011;52028;50.658;14.004;2022-12-29T03:47:23;71.35;;;27.48;;
65420;SDS011;52028;50.658;14.004;2022-12-29T03:49:50;69.68;;;29.35;;
65420;SDS011;52028;50.658;14.004;2022-12-29T03:52:15;75.85;;;29.67;;
65420;SDS011;52028;50.658;14.004;2022-12-29T03:54:41;66.82;;;28.48;;
65420;SDS011;52028;50.658;14.004;2022-12-29T03:57:07;69.13;;;29.38;;
65420;SDS011;52028;50.658;14.004;2022-12-29T03:59:33;64.25;;;28.52;;
65420;SDS011;52028;50.658;14.004;2022-12-29T04:01:59;74.45;;;27.90;;
65420;SDS011;52028;50.658;14.004;2022-12-29T04:04:24;63.63;;;26.83;;
65420;SDS011;52028;50.658;14.004;2022-12-29T04:06:49;60.30;;;27.30;;
65420;SDS011;52028;50.658;14.004;2022-12-29T04:09:15;59.85;;;26.02;;
65420;SDS011;52028;50.658;14.004;2022-12-29T04:11:40;56.25;;;26.38;;
65420;SDS011;52028;50.658;14.004;2022-12-29T04:14:05;54.30;;;25.52;;
65420;SDS011;52028;50.658;14.004;2022-12-29T04:16:30;58.63;;;26.63;;
65420;SDS011;52028;50.658;14.004;2022-12-29T04:18:56;56.08;;;25.55;;
65420;SDS011;52028;50.658;14.004;2022-12-29T04:21:21;51.03;;;24.63;;
65420;SDS011;52028;50.658;14.004;2022-12-29T04:23:47;56.75;;;25.58;;
65420;SDS011;52028;50.658;14.004;2022-12-29T04:26:12;57.25;;;25.23;;
65420;SDS011;52028;50.658;14.004;2022-12-29T04:28:38;62.05;;;26.95;;
65420;SDS011;52028;50.658;14.004;2022-12-29T04:31:03;70.85;;;26.48;;
65420;SDS011;52028;50.658;14.004;2022-12-29T04:33:29;60.53;;;27.02;;
65420;SDS011;52028;50.658;14.004;2022-12-29T04:35:55;59.03;;;25.55;;
65420;SDS011;52028;50.658;14.004;2022-12-29T04:38:21;60.78;;;27.30;;
65420;SDS011;52028;50.658;14.004;2022-12-29T04:40:47;64.68;;;26.00;;
65420;SDS011;52028;50.658;14.004;2022-12-29T04:43:14;64.90;;;26.90;;
65420;SDS011;52028;50.658;14.004;2022-12-29T04:45:43;59.42;;;26.48;;
65420;SDS011;52028;50.658;14.004;2022-12-29T04:48:11;65.93;;;29.30;;
65420;SDS011;52028;50.658;14.004;2022-12-29T04:50:37;60.88;;;27.67;;
65420;SDS011;52028;50.658;14.004;2022-12-29T04:53:03;73.10;;;30.52;;
65420;SDS011;52028;50.658;14.004;2022-12-29T04:55:28;68.75;;;29.85;;
65420;SDS011;52028;50.658;14.004;2022-12-29T04:57:54;76.50;;;30.17;;
65420;SDS011;52028;50.658;14.004;2022-12-29T05:00:19;64.97;;;29.30;;
65420;SDS011;52028;50.658;14.004;2022-12-29T05:02:45;62.00;;;26.77;;
65420;SDS011;52028;50.658;14.004;2022-12-29T05:05:10;54.80;;;25.30;;
65420;SDS011;52028;50.658;14.004;2022-12-29T05:07:36;53.13;;;25.13;;
65420;SDS011;52028;50.658;14.004;2022-12-29T05:10:01;63.97;;;25.23;;
65420;SDS011;52028;50.658;14.004;2022-12-29T05:12:30;58.28;;;25.15;;
65420;SDS011;52028;50.658;14.004;2022-12-29T05:14:56;61.27;;;27.10;;
65420;SDS011;52028;50.658;14.004;2022-12-29T05:17:21;52.63;;;25.35;;
65420;SDS011;52028;50.658;14.004;2022-12-29T05:19:47;60.17;;;26.42;;
65420;SDS011;52028;50.658;14.004;2022-12-29T05:22:12;68.18;;;28.45;;
65420;SDS011;52028;50.658;14.004;2022-12-29T05:24:37;57.42;;;26.48;;
65420;SDS011;52028;50.658;14.004;2022-12-29T05:27:03;58.42;;;25.08;;
65420;SDS011;52028;50.658;14.004;2022-12-29T05:29:28;59.70;;;26.08;;
65420;SDS011;52028;50.658;14.004;2022-12-29T05:31:53;61.97;;;25.73;;
65420;SDS011;52028;50.658;14.004;2022-12-29T05:34:19;55.45;;;25.63;;
65420;SDS011;52028;50.658;14.004;2022-12-29T05:36:44;62.85;;;27.85;;
65420;SDS011;52028;50.658;14.004;2022-12-29T05:39:09;60.75;;;26.10;;
65420;SDS011;52028;50.658;14.004;2022-12-29T05:41:35;67.85;;;29.10;;
65420;SDS011;52028;50.658;14.004;2022-12-29T05:44:01;65.70;;;29.15;;
65420;SDS011;52028;50.658;14.004;2022-12-29T05:46:27;59.38;;;26.45;;
65420;SDS011;52028;50.658;14.004;2022-12-29T05:48:52;63.83;;;27.00;;
65420;SDS011;52028;50.658;14.004;2022-12-29T05:51:19;68.28;;;30.38;;
65420;SDS011;52028;50.658;14.004;2022-12-29T05:53:44;68.55;;;29.98;;
65420;SDS011;52028;50.658;14.004;2022-12-29T05:56:10;66.22;;;29.67;;
65420;SDS011;52028;50.658;14.004;2022-12-29T05:58:35;74.07;;;32.72;;
65420;SDS011;52028;50.658;14.004;2022-12-29T06:01:00;69.13;;;29.58;;
65420;SDS011;52028;50.658;14.004;2022-12-29T06:03:26;66.22;;;30.73;;
65420;SDS011;52028;50.658;14.004;2022-12-29T06:05:51;76.47;;;31.08;;
65420;SDS011;52028;50.658;14.004;2022-12-29T06:08:21;71.45;;;30.35;;
65420;SDS011;52028;50.658;14.004;2022-12-29T06:10:49;70.40;;;31.20;;
65420;SDS011;52028;50.658;14.004;2022-12-29T06:13:15;64.57;;;28.42;;
65420;SDS011;52028;50.658;14.004;2022-12-29T06:15:40;76.80;;;30.48;;
65420;SDS011;52028;50.658;14.004;2022-12-29T06:18:06;73.82;;;31.58;;
65420;SDS011;52028;50.658;14.004;2022-12-29T06:20:31;71.85;;;29.10;;
65420;SDS011;52028;50.658;14.004;2022-12-29T06:22:57;78.65;;;34.03;;
65420;SDS011;52028;50.658;14.004;2022-12-29T06:25:22;69.82;;;29.70;;
65420;SDS011;52028;50.658;14.004;2022-12-29T06:27:48;80.40;;;31.92;;
65420;SDS011;52028;50.658;14.004;2022-12-29T06:30:13;90.63;;;34.08;;
65420;SDS011;52028;50.658;14.004;2022-12-29T06:32:39;88.43;;;34.35;;
65420;SDS011;52028;50.658;14.004;2022-12-29T06:35:05;94.47;;;37.58;;
65420;SDS011;52028;50.658;14.004;2022-12-29T06:37:31;89.75;;;38.92;;
65420;SDS011;52028;50.658;14.004;2022-12-29T06:39:57;75.63;;;34.67;;
65420;SDS011;52028;50.658;14.004;2022-12-29T06:42:22;77.90;;;32.38;;
65420;SDS011;52028;50.658;14.004;2022-12-29T06:44:48;71.05;;;28.52;;
65420;SDS011;52028;50.658;14.004;2022-12-29T06:47:13;69.28;;;30.08;;
65420;SDS011;52028;50.658;14.004;2022-12-29T06:49:38;70.50;;;30.92;;
65420;SDS011;52028;50.658;14.004;2022-12-29T06:52:15;68.40;;;30.15;;
65420;SDS011;52028;50.658;14.004;2022-12-29T06:54:41;81.05;;;38.42;;
65420;SDS011;52028;50.658;14.004;2022-12-29T06:57:06;92.32;;;37.05;;
65420;SDS011;52028;50.658;14.004;2022-12-29T06:59:32;93.20;;;37.55;;
65420;SDS011;52028;50.658;14.004;2022-12-29T07:01:57;97.90;;;39.58;;
65420;SDS011;52028;50.658;14.004;2022-12-29T07:04:22;95.35;;;41.53;;
65420;SDS011;52028;50.658;14.004;2022-12-29T07:06:48;93.15;;;40.83;;
65420;SDS011;52028;50.658;14.004;2022-12-29T07:09:13;104.03;;;49.97;;
65420;SDS011;52028;50.658;14.004;2022-12-29T07:11:38;90.68;;;41.65;;
65420;SDS011;52028;50.658;14.004;2022-12-29T07:14:04;92.47;;;42.22;;
65420;SDS011;52028;50.658;14.004;2022-12-29T07:16:29;108.22;;;47.25;;
65420;SDS011;52028;50.658;14.004;2022-12-29T07:18:55;111.82;;;47.25;;
65420;SDS011;52028;50.658;14.004;2022-12-29T07:21:21;115.95;;;48.30;;
65420;SDS011;52028;50.658;14.004;2022-12-29T07:23:47;113.50;;;47.20;;
65420;SDS011;52028;50.658;14.004;2022-12-29T07:26:13;111.65;;;43.95;;
65420;SDS011;52028;50.658;14.004;2022-12-29T07:28:40;114.50;;;46.70;;
65420;SDS011;52028;50.658;14.004;2022-12-29T07:31:07;119.88;;;50.40;;
65420;SDS011;52028;50.658;14.004;2022-12-29T07:33:39;107.85;;;43.13;;
65420;SDS011;52028;50.658;14.004;2022-12-29T07:36:04;110.80;;;44.47;;
65420;SDS011;52028;50.658;14.004;2022-12-29T07:38:30;123.30;;;46.90;;
65420;SDS011;52028;50.658;14.004;2022-12-29T07:40:56;98.47;;;41.15;;
65420;SDS011;52028;50.658;14.004;2022-12-29T07:43:23;107.70;;;43.30;;
65420;SDS011;52028;50.658;14.004;2022-12-29T07:45:48;100.68;;;40.08;;
65420;SDS011;52028;50.658;14.004;2022-12-29T07:48:13;106.78;;;41.33;;
65420;SDS011;52028;50.658;14.004;2022-12-29T07:50:39;95.25;;;40.80;;
65420;SDS011;52028;50.658;14.004;2022-12-29T07:53:04;88.57;;;38.53;;
65420;SDS011;52028;50.658;14.004;2022-12-29T07:55:29;94.70;;;41.38;;
65420;SDS011;52028;50.658;14.004;2022-12-29T07:57:55;88.45;;;38.72;;
65420;SDS011;52028;50.658;14.004;2022-12-29T08:00:21;92.32;;;40.15;;
65420;SDS011;52028;50.658;14.004;2022-12-29T08:02:47;123.82;;;50.72;;
65420;SDS011;52028;50.658;14.004;2022-12-29T08:05:12;139.15;;;59.55;;
65420;SDS011;52028;50.658;14.004;2022-12-29T08:07:38;120.47;;;54.17;;
65420;SDS011;52028;50.658;14.004;2022-12-29T08:10:03;129.55;;;52.03;;
65420;SDS011;52028;50.658;14.004;2022-12-29T08:12:30;99.93;;;43.42;;
65420;SDS011;52028;50.658;14.004;2022-12-29T08:14:56;104.55;;;43.35;;
65420;SDS011;52028;50.658;14.004;2022-12-29T08:17:21;126.72;;;45.88;;
65420;SDS011;52028;50.658;14.004;2022-12-29T08:19:48;107.30;;;40.72;;
65420;SDS011;52028;50.658;14.004;2022-12-29T08:22:14;106.00;;;42.88;;
65420;SDS011;52028;50.658;14.004;2022-12-29T08:24:39;105.43;;;41.47;;
65420;SDS011;52028;50.658;14.004;2022-12-29T08:27:05;95.50;;;38.15;;
65420;SDS011;52028;50.658;14.004;2022-12-29T08:29:30;93.40;;;38.13;;
65420;SDS011;52028;50.658;14.004;2022-12-29T08:31:56;113.82;;;41.72;;
65420;SDS011;52028;50.658;14.004;2022-12-29T08:34:21;96.25;;;40.33;;
65420;SDS011;52028;50.658;14.004;2022-12-29T08:36:46;99.65;;;39.88;;
65420;SDS011;52028;50.658;14.004;2022-12-29T08:39:12;87.30;;;36.45;;
65420;SDS011;52028;50.658;14.004;2022-12-29T08:41:37;99.60;;;37.20;;
65420;SDS011;52028;50.658;14.004;2022-12-29T08:44:02;99.70;;;36.00;;
65420;SDS011;52028;50.658;14.004;2022-12-29T08:46:28;87.75;;;34.72;;
65420;SDS011;52028;50.658;14.004;2022-12-29T08:48:53;97.13;;;36.80;;
65420;SDS011;52028;50.658;14.004;2022-12-29T08:51:19;85.97;;;34.80;;
65420;SDS011;52028;50.658;14.004;2022-12-29T08:53:44;85.32;;;33.45;;
65420;SDS011;52028;50.658;14.004;2022-12-29T08:56:10;86.47;;;34.08;;
65420;SDS011;52028;50.658;14.004;2022-12-29T08:58:36;90.28;;;34.80;;
65420;SDS011;52028;50.658;14.004;2022-12-29T09:01:02;106.07;;;41.75;;
65420;SDS011;52028;50.658;14.004;2022-12-29T09:03:28;108.80;;;49.50;;
65420;SDS011;52028;50.658;14.004;2022-12-29T09:05:54;113.38;;;50.60;;
65420;SDS011;52028;50.658;14.004;2022-12-29T09:08:20;105.88;;;53.15;;
65420;SDS011;52028;50.658;14.004;2022-12-29T09:10:46;102.53;;;48.55;;
65420;SDS011;52028;50.658;14.004;2022-12-29T09:13:12;78.88;;;35.85;;
65420;SDS011;52028;50.658;14.004;2022-12-29T09:15:38;67.45;;;31.17;;
65420;SDS011;52028;50.658;14.004;2022-12-29T09:18:04;66.32;;;29.60;;
65420;SDS011;52028;50.658;14.004;2022-12-29T09:20:30;63.67;;;29.08;;
65420;SDS011;52028;50.658;14.004;2022-12-29T09:22:55;54.92;;;25.33;;
65420;SDS011;52028;50.658;14.004;2022-12-29T09:25:21;52.13;;;26.95;;
65420;SDS011;52028;50.658;14.004;2022-12-29T09:27:49;48.83;;;23.35;;
65420;SDS011;52028;50.658;14.004;2022-12-29T09:30:17;56.45;;;25.83;;
65420;SDS011;52028;50.658;14.004;2022-12-29T09:32:42;51.47;;;25.23;;
65420;SDS011;52028;50.658;14.004;2022-12-29T09:35:08;54.88;;;26.98;;
65420;SDS011;52028;50.658;14.004;2022-12-29T09:37:33;55.92;;;27.80;;
65420;SDS011;52028;50.658;14.004;2022-12-29T09:39:58;61.08;;;27.10;;
65420;SDS011;52028;50.658;14.004;2022-12-29T09:42:28;64.90;;;28.08;;
65420;SDS011;52028;50.658;14.004;2022-12-29T09:47:43;60.05;;;29.15;;
65420;SDS011;52028;50.658;14.004;2022-12-29T09:55:23;61.10;;;31.42;;
65420;SDS011;52028;50.658;14.004;2022-12-29T09:58:02;58.85;;;31.58;;
65420;SDS011;52028;50.658;14.004;2022-12-29T10:00:37;69.70;;;35.63;;
65420;SDS011;52028;50.658;14.004;2022-12-29T10:03:06;59.72;;;29.65;;
65420;SDS011;52028;50.658;14.004;2022-12-29T10:08:37;62.38;;;28.90;;
65420;SDS011;52028;50.658;14.004;2022-12-29T10:14:03;54.33;;;22.85;;
65420;SDS011;52028;50.658;14.004;2022-12-29T10:25:21;48.72;;;24.08;;
65420;SDS011;52028;50.658;14.004;2022-12-29T10:27:50;46.70;;;22.33;;
65420;SDS011;52028;50.658;14.004;2022-12-29T10:30:17;50.13;;;22.95;;
65420;SDS011;52028;50.658;14.004;2022-12-29T10:32:45;45.90;;;23.00;;
65420;SDS011;52028;50.658;14.004;2022-12-29T10:42:53;49.53;;;24.58;;
65420;SDS011;52028;50.658;14.004;2022-12-29T10:45:19;54.88;;;25.10;;
65420;SDS011;52028;50.658;14.004;2022-12-29T10:48:09;65.53;;;30.85;;
65420;SDS011;52028;50.658;14.004;2022-12-29T10:50:44;103.78;;;44.80;;
65420;SDS011;52028;50.658;14.004;2022-12-29T10:53:12;72.78;;;33.03;;
65420;SDS011;52028;50.658;14.004;2022-12-29T10:55:43;63.97;;;30.50;;
65420;SDS011;52028;50.658;14.004;2022-12-29T10:58:11;66.35;;;31.50;;
65420;SDS011;52028;50.658;14.004;2022-12-29T11:00:38;60.70;;;30.40;;
65420;SDS011;52028;50.658;14.004;2022-12-29T11:08:11;65.15;;;31.33;;
65420;SDS011;52028;50.658;14.004;2022-12-29T11:10:40;59.72;;;29.15;;
65420;SDS011;52028;50.658;14.004;2022-12-29T11:13:18;60.92;;;28.40;;
65420;SDS011;52028;50.658;14.004;2022-12-29T11:15:49;64.60;;;29.23;;
65420;SDS011;52028;50.658;14.004;2022-12-29T11:20:47;79.55;;;39.58;;
65420;SDS011;52028;50.658;14.004;2022-12-29T11:23:48;77.18;;;40.85;;
65420;SDS011;52028;50.658;14.004;2022-12-29T11:28:36;81.47;;;42.22;;
65420;SDS011;52028;50.658;14.004;2022-12-29T11:31:03;74.28;;;36.28;;
65420;SDS011;52028;50.658;14.004;2022-12-29T11:33:33;73.03;;;37.17;;
65420;SDS011;52028;50.658;14.004;2022-12-29T11:36:02;71.78;;;36.10;;
65420;SDS011;52028;50.658;14.004;2022-12-29T11:38:33;62.55;;;32.30;;
65420;SDS011;52028;50.658;14.004;2022-12-29T11:41:02;69.68;;;34.47;;
65420;SDS011;52028;50.658;14.004;2022-12-29T11:46:02;61.53;;;32.05;;
65420;SDS011;52028;50.658;14.004;2022-12-29T11:48:47;57.72;;;29.13;;
65420;SDS011;52028;50.658;14.004;2022-12-29T11:51:20;53.28;;;26.88;;
65420;SDS011;52028;50.658;14.004;2022-12-29T11:53:47;52.67;;;27.52;;
65420;SDS011;52028;50.658;14.004;2022-12-29T11:56:17;52.08;;;28.42;;
65420;SDS011;52028;50.658;14.004;2022-12-29T11:58:47;53.90;;;27.25;;
65420;SDS011;52028;50.658;14.004;2022-12-29T12:01:27;51.47;;;27.05;;
65420;SDS011;52028;50.658;14.004;2022-12-29T12:04:05;45.80;;;22.25;;
65420;SDS011;52028;50.658;14.004;2022-12-29T12:06:39;47.45;;;24.65;;
65420;SDS011;52028;50.658;14.004;2022-12-29T12:09:31;49.85;;;24.15;;
65420;SDS011;52028;50.658;14.004;2022-12-29T12:11:59;60.83;;;28.20;;
65420;SDS011;52028;50.658;14.004;2022-12-29T12:14:45;61.08;;;28.77;;
65420;SDS011;52028;50.658;14.004;2022-12-29T12:17:24;52.50;;;25.00;;
65420;SDS011;52028;50.658;14.004;2022-12-29T12:20:02;51.85;;;22.27;;
65420;SDS011;52028;50.658;14.004;2022-12-29T12:25:39;45.13;;;19.50;;
65420;SDS011;52028;50.658;14.004;2022-12-29T12:28:18;34.47;;;15.20;;
65420;SDS011;52028;50.658;14.004;2022-12-29T12:33:27;50.42;;;20.85;;
65420;SDS011;52028;50.658;14.004;2022-12-29T12:36:14;47.58;;;22.90;;
65420;SDS011;52028;50.658;14.004;2022-12-29T12:41:21;46.17;;;21.38;;
65420;SDS011;52028;50.658;14.004;2022-12-29T12:57:40;24.10;;;10.80;;
65420;SDS011;52028;50.658;14.004;2022-12-29T13:00:18;18.98;;;9.60;;
65420;SDS011;52028;50.658;14.004;2022-12-29T13:03:04;18.73;;;10.30;;
65420;SDS011;52028;50.658;14.004;2022-12-29T13:16:25;23.58;;;11.27;;
65420;SDS011;52028;50.658;14.004;2022-12-29T13:19:00;22.80;;;11.30;;
65420;SDS011;52028;50.658;14.004;2022-12-29T13:25:07;19.02;;;10.98;;
65420;SDS011;52028;50.658;14.004;2022-12-29T13:27:42;36.28;;;15.45;;
65420;SDS011;52028;50.658;14.004;2022-12-29T13:30:31;23.27;;;12.60;;
65420;SDS011;52028;50.658;14.004;2022-12-29T13:41:58;40.88;;;17.83;;
65420;SDS011;52028;50.658;14.004;2022-12-29T13:44:27;55.53;;;24.58;;
65420;SDS011;52028;50.658;14.004;2022-12-29T13:46:56;73.18;;;28.95;;
65420;SDS011;52028;50.658;14.004;2022-12-29T13:49:26;65.70;;;27.33;;
65420;SDS011;52028;50.658;14.004;2022-12-29T13:51:56;49.05;;;24.70;;
65420;SDS011;52028;50.658;14.004;2022-12-29T13:54:27;26.10;;;14.02;;
65420;SDS011;52028;50.658;14.004;2022-12-29T13:57:10;36.13;;;17.92;;
65420;SDS011;52028;50.658;14.004;2022-12-29T14:00:04;43.78;;;21.65;;
65420;SDS011;52028;50.658;14.004;2022-12-29T14:07:47;37.28;;;18.02;;
65420;SDS011;52028;50.658;14.004;2022-12-29T14:15:37;51.42;;;23.88;;
65420;SDS011;52028;50.658;14.004;2022-12-29T14:23:47;48.53;;;21.73;;
65420;SDS011;52028;50.658;14.004;2022-12-29T14:26:15;52.65;;;20.48;;
65420;SDS011;52028;50.658;14.004;2022-12-29T14:28:53;42.38;;;19.98;;
65420;SDS011;52028;50.658;14.004;2022-12-29T14:39:39;41.17;;;19.67;;
65420;SDS011;52028;50.658;14.004;2022-12-29T14:42:11;36.88;;;18.15;;
65420;SDS011;52028;50.658;14.004;2022-12-29T14:44:58;36.75;;;17.38;;
65420;SDS011;52028;50.658;14.004;2022-12-29T14:47:39;112.88;;;44.63;;
65420;SDS011;52028;50.658;14.004;2022-12-29T14:53:04;63.28;;;27.58;;
65420;SDS011;52028;50.658;14.004;2022-12-29T14:55:41;51.20;;;22.27;;
65420;SDS011;52028;50.658;14.004;2022-12-29T14:58:12;82.70;;;32.30;;
65420;SDS011;52028;50.658;14.004;2022-12-29T15:00:43;71.47;;;30.48;;
65420;SDS011;52028;50.658;14.004;2022-12-29T15:05:58;57.47;;;22.00;;
65420;SDS011;52028;50.658;14.004;2022-12-29T15:08:32;63.70;;;23.35;;
65420;SDS011;52028;50.658;14.004;2022-12-29T15:13:42;62.05;;;28.48;;
65420;SDS011;52028;50.658;14.004;2022-12-29T15:16:25;75.32;;;34.95;;
65420;SDS011;52028;50.658;14.004;2022-12-29T15:18:57;51.80;;;24.77;;
65420;SDS011;52028;50.658;14.004;2022-12-29T15:21:25;45.20;;;21.48;;
65420;SDS011;52028;50.658;14.004;2022-12-29T15:23:52;63.28;;;28.67;;
65420;SDS011;52028;50.658;14.004;2022-12-29T15:26:18;28.98;;;14.07;;
65420;SDS011;52028;50.658;14.004;2022-12-29T15:28:49;41.08;;;20.10;;
65420;SDS011;52028;50.658;14.004;2022-12-29T15:31:17;49.55;;;21.95;;
65420;SDS011;52028;50.658;14.004;2022-12-29T15:33:49;50.70;;;23.33;;
65420;SDS011;52028;50.658;14.004;2022-12-29T15:36:20;46.17;;;23.17;;
65420;SDS011;52028;50.658;14.004;2022-12-29T15:38:47;58.65;;;24.55;;
65420;SDS011;52028;50.658;14.004;2022-12-29T15:41:19;55.28;;;25.00;;
65420;SDS011;52028;50.658;14.004;2022-12-29T15:44:35;61.63;;;25.08;;
65420;SDS011;52028;50.658;14.004;2022-12-29T15:47:05;61.65;;;27.70;;
65420;SDS011;52028;50.658;14.004;2022-12-29T15:49:36;63.83;;;28.98;;
65420;SDS011;52028;50.658;14.004;2022-12-29T15:52:05;62.83;;;25.95;;
65420;SDS011;52028;50.658;14.004;2022-12-29T15:54:32;69.43;;;28.20;;
65420;SDS011;52028;50.658;14.004;2022-12-29T15:56:57;56.47;;;26.42;;
65420;SDS011;52028;50.658;14.004;2022-12-29T15:59:27;68.22;;;28.90;;
65420;SDS011;52028;50.658;14.004;2022-12-29T16:01:56;62.22;;;27.83;;
65420;SDS011;52028;50.658;14.004;2022-12-29T16:04:23;61.05;;;27.77;;
65420;SDS011;52028;50.658;14.004;2022-12-29T16:06:54;61.25;;;26.48;;
65420;SDS011;52028;50.658;14.004;2022-12-29T16:09:32;91.60;;;34.88;;
65420;SDS011;52028;50.658;14.004;2022-12-29T16:12:00;85.32;;;32.38;;
65420;SDS011;52028;50.658;14.004;2022-12-29T16:14:40;78.18;;;30.60;;
65420;SDS011;52028;50.658;14.004;2022-12-29T16:17:11;67.80;;;29.50;;
65420;SDS011;52028;50.658;14.004;2022-12-29T16:19:38;63.08;;;27.75;;
65420;SDS011;52028;50.658;14.004;2022-12-29T16:22:09;63.67;;;27.67;;
65420;SDS011;52028;50.658;14.004;2022-12-29T16:24:37;128.23;;;47.15;;
65420;SDS011;52028;50.658;14.004;2022-12-29T16:29:30;128.70;;;47.95;;
65420;SDS011;52028;50.658;14.004;2022-12-29T16:31:59;109.07;;;39.40;;
65420;SDS011;52028;50.658;14.004;2022-12-29T16:34:42;122.18;;;42.08;;
65420;SDS011;52028;50.658;14.004;2022-12-29T16:39:44;100.30;;;42.60;;
65420;SDS011;52028;50.658;14.004;2022-12-29T16:45:17;40.85;;;18.42;;
65420;SDS011;52028;50.658;14.004;2022-12-29T16:48:09;107.90;;;40.53;;
65420;SDS011;52028;50.658;14.004;2022-12-29T16:50:41;210.30;;;83.85;;
65420;SDS011;52028;50.658;14.004;2022-12-29T16:55:49;122.05;;;53.95;;
65420;SDS011;52028;50.658;14.004;2022-12-29T16:58:18;109.63;;;44.30;;
65420;SDS011;52028;50.658;14.004;2022-12-29T17:00:51;97.22;;;40.92;;
65420;SDS011;52028;50.658;14.004;2022-12-29T17:03:19;105.85;;;45.42;;